createdAt,value
2022-12-25T00:00:40.829Z,8.13
2022-12-25T00:03:08.326Z,9.30
2022-12-25T00:05:38.684Z,7.83
2022-12-25T00:08:06.494Z,8.83
2022-12-25T00:10:33.393Z,6.83
2022-12-25T00:13:00.150Z,7.13
2022-12-25T00:15:26.829Z,6.27
2022-12-25T00:17:53.821Z,6.17
2022-12-25T00:20:20.569Z,9.30
2022-12-25T00:22:47.211Z,7.77
2022-12-25T00:25:13.818Z,8.33
2022-12-25T00:27:41.252Z,7.30
2022-12-25T00:30:08.498Z,6.43
2022-12-25T00:32:36.753Z,7.77
2022-12-25T00:35:05.661Z,6.73
2022-12-25T00:37:32.274Z,7.03
2022-12-25T00:39:58.880Z,8.10
2022-12-25T00:42:27.015Z,6.73
2022-12-25T00:44:53.573Z,9.33
2022-12-25T00:47:20.234Z,8.10
2022-12-25T00:49:47.106Z,8.80
2022-12-25T00:52:15.384Z,8.30
2022-12-25T00:54:41.996Z,8.00
2022-12-25T00:57:08.670Z,7.33
2022-12-25T00:59:35.611Z,8.13
2022-12-25T01:02:22.544Z,7.90
2022-12-25T01:04:59.239Z,9.27
2022-12-25T01:07:26.904Z,6.53
2022-12-25T01:10:12.126Z,7.73
2022-12-25T01:12:41.492Z,6.57
2022-12-25T01:15:10.186Z,7.67
2022-12-25T01:17:36.834Z,8.43
2022-12-25T01:20:04.261Z,7.07
2022-12-25T01:22:30.843Z,7.97
2022-12-25T01:24:57.392Z,9.50
2022-12-25T01:27:24.169Z,11.70
2022-12-25T01:29:50.752Z,9.17
2022-12-25T01:32:17.313Z,10.50
2022-12-25T01:34:44.064Z,11.97
2022-12-25T01:37:10.945Z,9.67
2022-12-25T01:39:37.537Z,8.67
2022-12-25T01:42:04.355Z,7.20
2022-12-25T01:44:37.084Z,8.70
2022-12-25T01:47:05.058Z,10.70
2022-12-25T01:49:34.765Z,8.73
2022-12-25T01:52:12.442Z,9.53
2022-12-25T01:54:46.272Z,8.77
2022-12-25T01:57:19.308Z,8.70
2022-12-25T01:59:46.881Z,9.63
2022-12-25T02:02:14.241Z,8.40
2022-12-25T02:04:48.308Z,8.13
2022-12-25T02:07:21.555Z,8.60
2022-12-25T02:09:48.897Z,7.50
2022-12-25T02:12:20.311Z,10.00
2022-12-25T02:14:50.272Z,7.50
2022-12-25T02:17:43.653Z,8.37
2022-12-25T02:20:13.285Z,6.03
2022-12-25T02:22:56.689Z,7.00
2022-12-25T02:26:01.719Z,8.23
2022-12-25T02:28:36.001Z,7.03
2022-12-25T02:31:17.751Z,7.00
2022-12-25T02:34:05.247Z,6.57
2022-12-25T02:37:07.345Z,7.63
2022-12-25T02:40:01.303Z,6.77
2022-12-25T02:43:22.817Z,7.07
2022-12-25T02:46:13.918Z,6.50
2022-12-25T02:49:13.793Z,6.70
2022-12-25T02:52:03.764Z,8.50
2022-12-25T02:55:04.078Z,6.60
2022-12-25T02:57:54.464Z,6.83
2022-12-25T03:00:40.165Z,7.67
2022-12-25T03:03:28.797Z,7.80
2022-12-25T03:06:18.273Z,6.13
2022-12-25T03:08:48.778Z,7.10
2022-12-25T03:11:33.665Z,8.70
2022-12-25T03:14:26.712Z,9.37
2022-12-25T03:16:56.667Z,7.07
2022-12-25T03:20:04.695Z,8.43
2022-12-25T03:22:51.632Z,6.80
2022-12-25T03:25:37.729Z,7.00
2022-12-25T03:28:05.754Z,12.20
2022-12-25T03:31:12.368Z,10.13
2022-12-25T03:34:21.146Z,8.37
2022-12-25T03:37:22.948Z,11.63
2022-12-25T03:40:20.885Z,8.87
2022-12-25T03:43:18.662Z,8.97
2022-12-25T03:46:11.053Z,13.03
2022-12-25T03:49:00.535Z,10.50
2022-12-25T03:51:51.912Z,12.20
2022-12-25T03:54:41.483Z,16.00
2022-12-25T03:57:28.207Z,9.50
2022-12-25T04:00:13.345Z,10.80
2022-12-25T04:02:58.658Z,15.60
2022-12-25T04:05:44.223Z,13.27
2022-12-25T04:08:29.308Z,10.73
2022-12-25T04:11:14.760Z,11.97
2022-12-25T04:14:16.628Z,8.73
2022-12-25T04:17:01.891Z,9.73
2022-12-25T04:19:47.310Z,10.27
2022-12-25T04:22:32.570Z,9.33
2022-12-25T04:25:18.013Z,9.17
2022-12-25T04:28:02.838Z,10.20
2022-12-25T04:30:47.725Z,9.77
2022-12-25T04:33:33.007Z,10.53
2022-12-25T04:36:14.443Z,17.47
2022-12-25T04:38:41.292Z,8.80
2022-12-25T04:41:10.171Z,10.17
2022-12-25T04:43:36.798Z,9.60
2022-12-25T04:46:04.669Z,10.43
2022-12-25T04:48:33.878Z,13.13
2022-12-25T04:51:22.330Z,12.33
2022-12-25T04:53:51.902Z,17.00
2022-12-25T04:56:18.878Z,18.53
2022-12-25T04:58:46.480Z,17.93
2022-12-25T05:01:14.028Z,18.87
2022-12-25T05:03:41.046Z,20.20
2022-12-25T05:06:08.076Z,39.27
2022-12-25T05:08:35.479Z,44.83
2022-12-25T05:11:08.129Z,35.03
2022-12-25T05:13:34.718Z,63.23
2022-12-25T05:16:05.057Z,42.33
2022-12-25T05:18:31.924Z,24.70
2022-12-25T05:20:58.468Z,26.17
2022-12-25T05:23:25.019Z,45.53
2022-12-25T05:25:51.842Z,12.27
2022-12-25T05:28:18.684Z,10.87
2022-12-25T05:30:45.400Z,20.17
2022-12-25T05:33:12.188Z,32.33
2022-12-25T05:35:39.533Z,19.17
2022-12-25T05:38:07.468Z,11.97
2022-12-25T05:40:34.913Z,19.87
2022-12-25T05:43:01.475Z,30.07
2022-12-25T05:45:28.015Z,25.67
2022-12-25T05:47:54.621Z,27.07
2022-12-25T05:50:21.227Z,26.73
2022-12-25T05:52:47.802Z,14.33
2022-12-25T05:55:14.402Z,10.37
2022-12-25T05:57:40.993Z,10.17
2022-12-25T06:00:08.513Z,10.50
2022-12-25T06:02:36.569Z,12.67
2022-12-25T06:05:04.499Z,10.70
2022-12-25T06:07:31.118Z,11.03
2022-12-25T06:09:57.946Z,12.07
2022-12-25T06:12:24.527Z,19.03
2022-12-25T06:14:51.080Z,16.23
2022-12-25T06:17:17.697Z,25.87
2022-12-25T06:19:44.320Z,18.90
2022-12-25T06:22:10.877Z,17.77
2022-12-25T06:24:37.962Z,18.93
2022-12-25T06:27:04.546Z,40.33
2022-12-25T06:29:31.148Z,61.90
2022-12-25T06:31:58.952Z,55.13
2022-12-25T06:34:25.947Z,79.23
2022-12-25T06:36:52.863Z,56.20
2022-12-25T06:39:21.680Z,82.57
2022-12-25T06:41:48.415Z,71.93
2022-12-25T06:44:15.056Z,94.90
2022-12-25T06:46:41.764Z,126.10
2022-12-25T06:49:09.875Z,133.83
2022-12-25T06:51:36.542Z,47.37
2022-12-25T06:54:04.252Z,41.60
2022-12-25T06:56:31.646Z,69.27
2022-12-25T06:59:01.454Z,60.13
2022-12-25T07:01:35.595Z,16.50
2022-12-25T07:04:05.730Z,14.00
2022-12-25T07:06:33.892Z,13.43
2022-12-25T07:09:00.507Z,12.17
2022-12-25T07:11:27.294Z,11.87
2022-12-25T07:13:54.236Z,10.93
2022-12-25T07:16:21.201Z,10.93
2022-12-25T07:18:47.904Z,10.87
2022-12-25T07:21:17.614Z,11.00
2022-12-25T07:23:45.994Z,10.77
2022-12-25T07:26:13.279Z,11.87
2022-12-25T07:28:40.260Z,10.77
2022-12-25T07:31:15.258Z,11.60
2022-12-25T07:33:42.138Z,12.33
2022-12-25T07:36:12.604Z,11.70
2022-12-25T07:38:41.474Z,9.83
2022-12-25T07:41:10.323Z,12.43
2022-12-25T07:43:36.965Z,10.30
2022-12-25T07:46:03.701Z,12.10
2022-12-25T07:48:30.608Z,15.00
2022-12-25T07:51:03.137Z,14.60
2022-12-25T07:53:29.951Z,14.90
2022-12-25T07:56:02.516Z,13.93
2022-12-25T07:58:30.189Z,13.10
2022-12-25T08:01:06.261Z,13.97
2022-12-25T08:03:34.460Z,13.53
2022-12-25T08:06:03.174Z,16.73
2022-12-25T08:08:29.935Z,13.67
2022-12-25T08:10:56.880Z,12.97
2022-12-25T08:13:23.485Z,17.47
2022-12-25T08:15:50.042Z,14.03
2022-12-25T08:18:16.981Z,13.23
2022-12-25T08:20:43.519Z,15.00
2022-12-25T08:23:10.080Z,14.60
2022-12-25T08:25:36.912Z,14.93
2022-12-25T08:28:03.552Z,13.03
2022-12-25T08:30:30.285Z,12.30
2022-12-25T08:32:56.957Z,13.80
2022-12-25T08:35:23.731Z,13.07
2022-12-25T08:37:50.333Z,18.83
2022-12-25T08:40:17.041Z,14.63
2022-12-25T08:42:43.781Z,14.23
2022-12-25T08:45:10.913Z,12.37
2022-12-25T08:47:37.569Z,12.97
2022-12-25T08:50:04.479Z,17.13
2022-12-25T08:52:31.171Z,14.67
2022-12-25T08:54:57.906Z,13.93
2022-12-25T08:57:24.522Z,18.60
2022-12-25T08:59:51.072Z,9.90
2022-12-25T09:02:19.014Z,11.40
2022-12-25T09:04:46.787Z,11.90
2022-12-25T09:07:13.451Z,13.07
2022-12-25T09:09:40.349Z,10.10
2022-12-25T09:12:07.150Z,10.57
2022-12-25T09:14:33.762Z,11.90
2022-12-25T09:17:00.332Z,11.13
2022-12-25T09:19:26.867Z,11.17
2022-12-25T09:21:53.857Z,10.90
2022-12-25T09:24:21.101Z,10.40
2022-12-25T09:26:47.671Z,10.80
2022-12-25T09:29:16.437Z,13.43
2022-12-25T09:31:43.034Z,10.47
2022-12-25T09:34:13.852Z,10.87
2022-12-25T09:36:43.762Z,9.00
2022-12-25T09:39:10.342Z,9.87
2022-12-25T09:41:48.834Z,7.90
2022-12-25T09:44:22.704Z,8.53
2022-12-25T09:47:14.530Z,8.00
2022-12-25T09:50:01.529Z,8.07
2022-12-25T09:52:46.373Z,8.37
2022-12-25T09:55:20.506Z,7.47
2022-12-25T09:57:56.736Z,7.57
2022-12-25T10:00:25.820Z,7.27
2022-12-25T10:02:59.458Z,7.97
2022-12-25T10:06:03.289Z,8.77
2022-12-25T10:09:00.383Z,7.97
2022-12-25T10:11:45.365Z,7.43
2022-12-25T10:14:26.913Z,7.97
2022-12-25T10:17:02.382Z,8.70
2022-12-25T10:19:49.228Z,7.87
2022-12-25T10:22:42.433Z,6.90
2022-12-25T10:25:19.960Z,9.47
2022-12-25T10:27:51.831Z,6.47
2022-12-25T10:30:24.210Z,8.30
2022-12-25T10:32:52.846Z,8.70
2022-12-25T10:35:22.427Z,7.93
2022-12-25T10:37:59.158Z,8.83
2022-12-25T10:40:37.938Z,8.03
2022-12-25T10:43:24.226Z,8.70
2022-12-25T10:45:50.927Z,8.63
2022-12-25T10:48:29.972Z,9.87
2022-12-25T10:50:57.247Z,10.30
2022-12-25T10:53:26.947Z,9.00
2022-12-25T10:56:01.592Z,9.53
2022-12-25T10:58:29.508Z,11.50
2022-12-25T11:01:01.153Z,8.40
2022-12-25T11:03:33.438Z,11.27
2022-12-25T11:06:00.362Z,9.60
2022-12-25T11:08:30.072Z,10.50
2022-12-25T11:11:06.736Z,10.43
2022-12-25T11:13:37.495Z,11.27
2022-12-25T11:16:13.326Z,9.77
2022-12-25T11:18:52.052Z,11.47
2022-12-25T11:21:22.550Z,8.77
2022-12-25T11:23:56.222Z,8.90
2022-12-25T11:26:22.786Z,7.70
2022-12-25T11:28:51.639Z,7.47
2022-12-25T11:31:23.354Z,6.87
2022-12-25T11:33:56.027Z,6.33
2022-12-25T11:36:31.905Z,6.30
2022-12-25T11:39:10.057Z,7.73
2022-12-25T11:41:38.865Z,6.47
2022-12-25T11:44:13.846Z,10.20
2022-12-25T11:46:46.379Z,17.53
2022-12-25T11:49:16.919Z,12.33
2022-12-25T11:51:47.309Z,16.90
2022-12-25T11:54:40.832Z,11.33
2022-12-25T11:57:11.637Z,25.57
2022-12-25T12:00:00.691Z,18.00
2022-12-25T12:02:37.215Z,8.87
2022-12-25T12:05:25.705Z,8.27
2022-12-25T12:08:04.096Z,8.43
2022-12-25T12:10:54.606Z,8.07
2022-12-25T12:13:34.761Z,8.50
2022-12-25T12:16:01.619Z,9.10
2022-12-25T12:18:28.310Z,8.37
2022-12-25T12:21:06.542Z,9.00
2022-12-25T12:23:47.798Z,6.80
2022-12-25T12:26:29.690Z,6.90
2022-12-25T12:29:01.258Z,7.40
2022-12-25T12:31:43.358Z,6.87
2022-12-25T12:34:31.652Z,7.80
2022-12-25T12:37:06.589Z,6.80
2022-12-25T12:39:42.144Z,5.60
2022-12-25T12:42:20.340Z,7.83
2022-12-25T12:44:49.741Z,6.67
2022-12-25T12:47:46.882Z,7.60
2022-12-25T12:50:36.643Z,5.87
2022-12-25T12:53:29.333Z,6.07
2022-12-25T12:55:56.299Z,6.50
2022-12-25T12:58:33.863Z,7.07
2022-12-25T13:01:03.430Z,6.37
2022-12-25T13:03:48.905Z,5.73
2022-12-25T13:06:48.297Z,6.37
2022-12-25T13:09:30.121Z,6.37
2022-12-25T13:11:57.087Z,6.00
2022-12-25T13:14:25.247Z,5.60
2022-12-25T13:16:54.421Z,6.67
2022-12-25T13:19:27.490Z,6.20
2022-12-25T13:21:58.932Z,6.17
2022-12-25T13:24:31.333Z,7.47
2022-12-25T13:26:59.923Z,6.77
2022-12-25T13:29:38.227Z,9.57
2022-12-25T13:32:08.220Z,7.67
2022-12-25T13:34:37.982Z,5.87
2022-12-25T13:37:10.276Z,6.60
2022-12-25T13:39:46.096Z,7.23
2022-12-25T13:42:18.074Z,7.60
2022-12-25T13:44:56.504Z,6.13
2022-12-25T13:47:26.523Z,6.40
2022-12-25T13:49:55.830Z,7.27
2022-12-25T13:52:34.633Z,7.50
2022-12-25T13:55:14.013Z,5.83
2022-12-25T13:57:59.278Z,5.63
2022-12-25T14:00:48.875Z,8.47
2022-12-25T14:03:22.483Z,6.77
2022-12-25T14:06:06.585Z,7.87
2022-12-25T14:08:35.924Z,6.53
2022-12-25T14:11:05.474Z,8.37
2022-12-25T14:13:37.258Z,7.27
2022-12-25T14:16:04.795Z,7.40
2022-12-25T14:18:31.719Z,6.70
2022-12-25T14:21:03.289Z,6.90
2022-12-25T14:23:40.615Z,6.73
2022-12-25T14:26:07.547Z,6.00
2022-12-25T14:28:34.611Z,6.50
2022-12-25T14:31:03.908Z,6.90
2022-12-25T14:33:38.508Z,6.70
2022-12-25T14:36:06.974Z,10.07
2022-12-25T14:38:35.241Z,7.70
2022-12-25T14:41:07.913Z,8.20
2022-12-25T14:43:36.489Z,7.50
2022-12-25T14:46:08.110Z,7.43
2022-12-25T14:48:34.831Z,8.73
2022-12-25T14:51:16.013Z,6.60
2022-12-25T14:53:54.893Z,8.80
2022-12-25T14:56:23.341Z,6.80
2022-12-25T14:58:53.264Z,11.17
2022-12-25T15:01:27.310Z,9.17
2022-12-25T15:04:06.167Z,8.60
2022-12-25T15:06:33.439Z,7.10
2022-12-25T15:09:02.528Z,7.10
2022-12-25T15:11:29.724Z,9.67
2022-12-25T15:13:56.902Z,8.03
2022-12-25T15:16:27.951Z,8.53
2022-12-25T15:18:54.894Z,8.07
2022-12-25T15:21:30.431Z,7.50
2022-12-25T15:23:59.005Z,7.00
2022-12-25T15:26:27.469Z,6.53
2022-12-25T15:28:54.222Z,7.13
2022-12-25T15:31:22.894Z,8.67
2022-12-25T15:33:49.811Z,6.77
2022-12-25T15:36:16.640Z,6.70
2022-12-25T15:38:43.308Z,9.10
2022-12-25T15:41:50.101Z,6.60
2022-12-25T15:44:17.320Z,7.83
2022-12-25T15:46:45.884Z,6.87
2022-12-25T15:49:13.413Z,7.17
2022-12-25T15:51:41.108Z,8.30
2022-12-25T15:54:08.640Z,7.20
2022-12-25T15:56:43.729Z,8.87
2022-12-25T15:59:14.774Z,7.33
2022-12-25T16:01:48.010Z,7.27
2022-12-25T16:04:14.666Z,9.60
2022-12-25T16:06:41.340Z,10.63
2022-12-25T16:09:11.259Z,10.23
2022-12-25T16:11:37.950Z,9.77
2022-12-25T16:14:04.696Z,8.87
2022-12-25T16:16:31.816Z,11.60
2022-12-25T16:18:58.416Z,9.93
2022-12-25T16:21:25.368Z,9.73
2022-12-25T16:23:52.171Z,9.87
2022-12-25T16:26:18.951Z,9.30
2022-12-25T16:28:45.487Z,9.20
2022-12-25T16:31:12.405Z,9.83
2022-12-25T16:33:39.127Z,8.87
2022-12-25T16:36:06.030Z,12.20
2022-12-25T16:38:33.793Z,11.43
2022-12-25T16:41:01.836Z,8.80
2022-12-25T16:43:28.726Z,9.23
2022-12-25T16:45:57.395Z,9.13
2022-12-25T16:48:24.043Z,10.40
2022-12-25T16:50:50.795Z,8.97
2022-12-25T16:53:17.528Z,9.27
2022-12-25T16:55:44.060Z,9.63
2022-12-25T16:58:10.845Z,10.03
2022-12-25T17:00:37.782Z,9.60
2022-12-25T17:03:05.005Z,9.83
2022-12-25T17:05:33.505Z,8.70
2022-12-25T17:08:00.608Z,11.13
2022-12-25T17:10:27.258Z,9.97
2022-12-25T17:12:53.796Z,8.13
2022-12-25T17:15:20.405Z,8.33
2022-12-25T17:17:46.933Z,9.23
2022-12-25T17:20:13.558Z,6.77
2022-12-25T17:22:40.240Z,7.93
2022-12-25T17:25:08.016Z,8.57
2022-12-25T17:27:34.579Z,6.77
2022-12-25T17:30:01.424Z,7.60
2022-12-25T17:32:28.022Z,7.43
2022-12-25T17:34:54.589Z,7.03
2022-12-25T17:37:21.353Z,7.00
2022-12-25T17:39:48.022Z,7.07
2022-12-25T17:42:14.674Z,6.90
2022-12-25T17:44:41.298Z,7.57
2022-12-25T17:47:07.933Z,7.60
2022-12-25T17:49:35.900Z,6.37
2022-12-25T17:52:02.624Z,7.50
2022-12-25T17:54:29.161Z,7.83
2022-12-25T17:56:55.699Z,7.67
2022-12-25T17:59:28.559Z,6.77
2022-12-25T18:01:55.229Z,6.77
2022-12-25T18:04:24.720Z,8.80
2022-12-25T18:06:51.452Z,8.00
2022-12-25T18:09:19.795Z,7.77
2022-12-25T18:11:46.470Z,9.83
2022-12-25T18:14:14.995Z,8.80
2022-12-25T18:16:43.769Z,9.80
2022-12-25T18:19:11.908Z,8.73
2022-12-25T18:21:38.538Z,8.37
2022-12-25T18:24:06.271Z,16.50
2022-12-25T18:26:33.397Z,7.43
2022-12-25T18:29:00.576Z,8.93
2022-12-25T18:31:30.209Z,8.60
2022-12-25T18:33:58.057Z,7.93
2022-12-25T18:36:26.421Z,8.83
2022-12-25T18:38:54.419Z,10.57
2022-12-25T18:41:22.152Z,10.57
2022-12-25T18:43:54.322Z,7.83
2022-12-25T18:46:26.989Z,8.03
2022-12-25T18:48:55.744Z,8.83
2022-12-25T18:51:22.538Z,9.10
2022-12-25T18:53:49.195Z,7.90
2022-12-25T18:56:18.350Z,8.60
2022-12-25T18:58:45.860Z,9.37
2022-12-25T19:01:18.891Z,9.47
2022-12-25T19:03:46.478Z,8.07
2022-12-25T19:06:19.107Z,8.83
2022-12-25T19:08:45.801Z,8.97
2022-12-25T19:11:12.382Z,9.70
2022-12-25T19:13:39.138Z,9.43
2022-12-25T19:16:06.030Z,11.73
2022-12-25T19:18:32.753Z,10.90
2022-12-25T19:21:04.327Z,12.47
2022-12-25T19:23:31.197Z,12.63
2022-12-25T19:25:57.972Z,13.07
2022-12-25T19:28:25.342Z,10.80
2022-12-25T19:30:55.114Z,9.60
2022-12-25T19:33:22.636Z,10.93
2022-12-25T19:35:50.065Z,11.60
2022-12-25T19:38:16.690Z,10.37
2022-12-25T19:41:00.234Z,11.27
2022-12-25T19:43:32.737Z,13.30
2022-12-25T19:46:00.259Z,12.90
2022-12-25T19:48:27.546Z,12.67
2022-12-25T19:50:54.579Z,12.83
2022-12-25T19:53:23.889Z,12.30
2022-12-25T19:55:54.217Z,13.57
2022-12-25T19:58:22.313Z,12.63
2022-12-25T20:01:05.600Z,11.67
2022-12-25T20:03:34.965Z,10.37
2022-12-25T20:06:04.899Z,15.53
2022-12-25T20:08:32.314Z,11.50
2022-12-25T20:10:59.014Z,12.27
2022-12-25T20:13:25.951Z,9.50
2022-12-25T20:15:52.679Z,11.00
2022-12-25T20:18:19.277Z,15.23
2022-12-25T20:20:45.939Z,50.00
2022-12-25T20:23:13.709Z,45.07
2022-12-25T20:25:41.876Z,56.43
2022-12-25T20:28:09.569Z,15.50
2022-12-25T20:30:39.845Z,38.87
2022-12-25T20:33:06.695Z,17.10
2022-12-25T20:35:33.375Z,39.70
2022-12-25T20:38:00.071Z,35.83
2022-12-25T20:40:26.655Z,63.87
2022-12-25T20:42:53.189Z,121.70
2022-12-25T20:45:20.453Z,81.00
2022-12-25T20:47:47.353Z,92.47
2022-12-25T20:50:13.919Z,71.07
2022-12-25T20:52:40.501Z,63.60
2022-12-25T20:55:07.270Z,132.17
2022-12-25T20:57:34.004Z,60.50
2022-12-25T21:00:00.935Z,38.23
2022-12-25T21:02:35.126Z,77.50
2022-12-25T21:05:03.892Z,43.70
2022-12-25T21:07:30.637Z,36.80
2022-12-25T21:09:57.793Z,45.43
2022-12-25T21:12:24.421Z,35.17
2022-12-25T21:14:51.094Z,32.57
2022-12-25T21:17:17.989Z,22.13
2022-12-25T21:19:44.840Z,24.03
2022-12-25T21:22:12.016Z,24.47
2022-12-25T21:24:38.643Z,48.37
2022-12-25T21:27:05.515Z,25.20
2022-12-25T21:29:32.351Z,40.83
2022-12-25T21:32:17.801Z,17.50
2022-12-25T21:34:44.442Z,19.97
2022-12-25T21:37:11.914Z,13.17
2022-12-25T21:39:38.812Z,11.27
2022-12-25T21:42:05.525Z,20.07
2022-12-25T21:44:32.221Z,29.77
2022-12-25T21:46:59.039Z,34.30
2022-12-25T21:49:44.428Z,50.07
2022-12-25T21:52:11.279Z,128.37
2022-12-25T21:54:37.928Z,194.70
2022-12-25T21:57:04.562Z,67.87
2022-12-25T21:59:31.187Z,135.10
2022-12-25T22:01:59.546Z,152.67
2022-12-25T22:04:26.690Z,124.07
2022-12-25T22:07:11.935Z,100.00
2022-12-25T22:09:38.773Z,29.57
2022-12-25T22:12:30.269Z,33.10
2022-12-25T22:15:06.833Z,18.50
2022-12-25T22:17:57.641Z,10.43
2022-12-25T22:20:34.889Z,16.33
2022-12-25T22:23:02.105Z,14.17
2022-12-25T22:25:28.884Z,11.50
2022-12-25T22:27:55.869Z,14.23
2022-12-25T22:30:26.078Z,17.07
2022-12-25T22:32:52.985Z,15.80
2022-12-25T22:35:20.638Z,16.23
2022-12-25T22:37:48.370Z,13.57
2022-12-25T22:40:17.904Z,14.73
2022-12-25T22:42:44.497Z,15.27
2022-12-25T22:45:11.825Z,14.27
2022-12-25T22:47:38.831Z,16.13
2022-12-25T22:50:06.300Z,15.23
2022-12-25T22:52:33.139Z,16.27
2022-12-25T22:54:59.967Z,16.33
2022-12-25T22:57:26.770Z,19.50
2022-12-25T22:59:53.711Z,15.53
2022-12-25T23:02:20.929Z,20.63
2022-12-25T23:04:48.337Z,22.50
2022-12-25T23:07:15.807Z,21.47
2022-12-25T23:09:43.576Z,21.27
2022-12-25T23:12:29.673Z,20.77
2022-12-25T23:14:57.078Z,18.07
2022-12-25T23:17:42.908Z,20.60
2022-12-25T23:20:45.186Z,22.27
2022-12-25T23:23:34.879Z,23.43
2022-12-25T23:26:08.174Z,22.87
2022-12-25T23:28:58.601Z,19.23
2022-12-25T23:31:32.063Z,16.87
2022-12-25T23:33:58.902Z,20.00
2022-12-25T23:36:25.747Z,24.20
2022-12-25T23:38:52.322Z,19.20
2022-12-25T23:41:19.364Z,18.43
2022-12-25T23:43:46.415Z,23.30
2022-12-25T23:46:13.067Z,19.37
2022-12-25T23:48:39.749Z,18.57
2022-12-25T23:51:08.391Z,19.23
2022-12-25T23:53:35.409Z,18.47
2022-12-25T23:56:02.448Z,19.90
2022-12-25T23:58:29.519Z,21.30
